createdAt,value
2023-01-18T00:00:37.942Z,4.30
2023-01-18T00:03:05.773Z,4.23
2023-01-18T00:05:33.681Z,4.11
2023-01-18T00:08:00.821Z,3.96
2023-01-18T00:10:27.407Z,3.96
2023-01-18T00:12:53.976Z,3.76
2023-01-18T00:15:20.571Z,4.30
2023-01-18T00:17:47.055Z,4.49
2023-01-18T00:20:18.060Z,4.54
2023-01-18T00:22:44.558Z,4.64
2023-01-18T00:25:11.076Z,4.44
2023-01-18T00:27:37.996Z,4.71
2023-01-18T00:30:05.977Z,4.88
2023-01-18T00:32:32.695Z,4.96
2023-01-18T00:34:59.544Z,4.95
2023-01-18T00:37:27.169Z,4.64
2023-01-18T00:39:53.617Z,4.49
2023-01-18T00:42:20.104Z,4.52
2023-01-18T00:44:46.540Z,4.39
2023-01-18T00:47:12.998Z,4.74
2023-01-18T00:49:39.442Z,5.17
2023-01-18T00:52:05.881Z,4.77
2023-01-18T00:54:32.323Z,4.71
2023-01-18T00:56:58.752Z,4.48
2023-01-18T00:59:25.203Z,4.54
2023-01-18T01:01:51.789Z,4.57
2023-01-18T01:04:18.395Z,4.60
2023-01-18T01:06:45.299Z,4.52
2023-01-18T01:09:22.746Z,4.59
2023-01-18T01:11:49.764Z,4.57
2023-01-18T01:14:16.274Z,4.47
2023-01-18T01:16:42.859Z,4.50
2023-01-18T01:19:09.447Z,4.43
2023-01-18T01:21:35.899Z,4.52
2023-01-18T01:24:02.376Z,4.38
2023-01-18T01:26:28.846Z,4.64
2023-01-18T01:28:55.284Z,4.81
2023-01-18T01:31:21.737Z,4.81
2023-01-18T01:33:48.224Z,4.85
2023-01-18T01:36:17.900Z,4.98
2023-01-18T01:38:45.052Z,5.38
2023-01-18T01:41:18.009Z,5.82
2023-01-18T01:43:48.887Z,5.33
2023-01-18T01:46:22.961Z,5.19
2023-01-18T01:48:50.040Z,4.62
2023-01-18T01:51:19.769Z,4.61
2023-01-18T01:53:51.086Z,4.89
2023-01-18T01:56:20.631Z,5.06
2023-01-18T01:58:53.859Z,4.99
2023-01-18T02:01:20.408Z,5.00
2023-01-18T02:03:46.978Z,5.09
2023-01-18T02:06:22.015Z,5.00
2023-01-18T02:08:48.525Z,4.91
2023-01-18T02:11:14.980Z,5.03
2023-01-18T02:13:41.680Z,5.30
2023-01-18T02:16:33.448Z,4.94
2023-01-18T02:19:32.861Z,4.85
2023-01-18T02:22:10.065Z,4.69
2023-01-18T02:24:56.872Z,4.59
2023-01-18T02:27:44.031Z,4.43
2023-01-18T02:30:29.930Z,4.42
2023-01-18T02:33:13.062Z,4.75
2023-01-18T02:35:51.719Z,5.15
2023-01-18T02:38:31.027Z,4.83
2023-01-18T02:41:10.018Z,4.89
2023-01-18T02:43:37.419Z,4.87
2023-01-18T02:46:10.510Z,4.69
2023-01-18T02:48:41.869Z,4.68
2023-01-18T02:51:08.732Z,4.51
2023-01-18T02:53:42.442Z,4.47
2023-01-18T02:56:12.923Z,4.39
2023-01-18T02:58:47.390Z,4.40
2023-01-18T03:01:23.529Z,4.24
2023-01-18T03:03:55.170Z,4.07
2023-01-18T03:06:26.684Z,4.15
2023-01-18T03:08:56.246Z,4.35
2023-01-18T03:11:45.855Z,4.36
2023-01-18T03:14:26.359Z,4.57
2023-01-18T03:17:21.669Z,4.48
2023-01-18T03:19:50.603Z,4.38
2023-01-18T03:22:17.762Z,4.51
2023-01-18T03:24:45.896Z,4.60
2023-01-18T03:27:14.217Z,4.94
2023-01-18T03:29:40.725Z,5.02
2023-01-18T03:32:15.065Z,4.93
2023-01-18T03:34:55.399Z,4.93
2023-01-18T03:37:32.615Z,5.04
2023-01-18T03:40:04.601Z,4.84
2023-01-18T03:42:47.351Z,4.73
2023-01-18T03:45:54.603Z,4.82
2023-01-18T03:48:21.544Z,4.57
2023-01-18T03:50:54.658Z,4.92
2023-01-18T03:53:36.692Z,5.06
2023-01-18T03:56:29.199Z,4.80
2023-01-18T03:59:02.080Z,4.81
2023-01-18T04:01:29.089Z,4.82
2023-01-18T04:03:55.711Z,4.99
2023-01-18T04:06:22.515Z,5.03
2023-01-18T04:08:52.831Z,5.19
2023-01-18T04:11:19.326Z,5.03
2023-01-18T04:13:45.814Z,4.85
2023-01-18T04:16:12.321Z,5.16
2023-01-18T04:18:38.831Z,5.28
2023-01-18T04:21:05.425Z,4.96
2023-01-18T04:23:31.876Z,4.91
2023-01-18T04:25:58.328Z,4.83
2023-01-18T04:28:24.839Z,4.76
2023-01-18T04:30:53.121Z,4.80
2023-01-18T04:33:20.627Z,4.81
2023-01-18T04:35:48.077Z,5.12
2023-01-18T04:38:15.384Z,5.04
2023-01-18T04:40:42.430Z,5.01
2023-01-18T04:43:09.175Z,5.14
2023-01-18T04:45:35.646Z,4.85
2023-01-18T04:48:02.105Z,4.84
2023-01-18T04:50:28.586Z,5.17
2023-01-18T04:52:55.105Z,5.47
2023-01-18T04:55:21.770Z,5.13
2023-01-18T04:57:54.963Z,4.95
2023-01-18T05:00:21.501Z,4.67
2023-01-18T05:02:48.105Z,4.40
2023-01-18T05:05:14.666Z,4.05
2023-01-18T05:07:41.145Z,3.96
2023-01-18T05:10:07.948Z,3.92
2023-01-18T05:12:34.426Z,3.97
2023-01-18T05:15:00.899Z,3.76
2023-01-18T05:17:27.467Z,3.72
2023-01-18T05:19:54.270Z,3.48
2023-01-18T05:22:21.955Z,3.48
2023-01-18T05:24:49.250Z,3.25
2023-01-18T05:27:15.747Z,3.24
2023-01-18T05:29:42.537Z,3.22
2023-01-18T05:32:09.167Z,3.23
2023-01-18T05:34:35.649Z,3.59
2023-01-18T05:37:02.243Z,4.05
2023-01-18T05:39:28.736Z,4.20
2023-01-18T05:41:55.186Z,4.56
2023-01-18T05:44:21.654Z,4.77
2023-01-18T05:46:48.196Z,4.90
2023-01-18T05:49:14.735Z,5.01
2023-01-18T05:51:41.233Z,5.06
2023-01-18T05:54:07.672Z,5.13
2023-01-18T05:56:34.212Z,5.15
2023-01-18T05:59:00.682Z,5.39
2023-01-18T06:01:28.165Z,5.51
2023-01-18T06:03:54.739Z,5.60
2023-01-18T06:06:21.482Z,5.58
2023-01-18T06:08:47.951Z,5.65
2023-01-18T06:11:14.421Z,5.37
2023-01-18T06:13:40.933Z,5.54
2023-01-18T06:16:07.646Z,5.49
2023-01-18T06:18:34.179Z,5.28
2023-01-18T06:21:03.181Z,5.66
2023-01-18T06:23:30.994Z,5.41
2023-01-18T06:25:58.062Z,4.73
2023-01-18T06:28:25.029Z,5.12
2023-01-18T06:30:55.754Z,4.66
2023-01-18T06:33:23.591Z,4.93
2023-01-18T06:35:50.397Z,4.92
2023-01-18T06:38:16.881Z,4.41
2023-01-18T06:40:43.345Z,4.39
2023-01-18T06:43:09.840Z,4.33
2023-01-18T06:45:36.450Z,4.16
2023-01-18T06:48:03.113Z,4.08
2023-01-18T06:50:29.576Z,3.71
2023-01-18T06:52:56.492Z,3.94
2023-01-18T06:55:23.242Z,3.95
2023-01-18T06:57:49.699Z,3.89
2023-01-18T07:00:16.649Z,3.93
2023-01-18T07:02:43.094Z,4.03
2023-01-18T07:05:09.731Z,4.34
2023-01-18T07:07:36.307Z,4.19
2023-01-18T07:10:02.789Z,3.77
2023-01-18T07:12:29.228Z,4.04
2023-01-18T07:14:55.729Z,3.78
2023-01-18T07:17:22.187Z,3.63
2023-01-18T07:19:48.647Z,3.92
2023-01-18T07:22:15.128Z,4.11
2023-01-18T07:24:41.591Z,4.33
2023-01-18T07:27:08.125Z,4.41
2023-01-18T07:29:34.571Z,3.39
2023-01-18T07:32:01.108Z,3.12
2023-01-18T07:34:27.732Z,2.92
2023-01-18T07:36:54.216Z,2.66
2023-01-18T07:39:20.692Z,2.50
2023-01-18T07:41:47.146Z,2.31
2023-01-18T07:44:13.704Z,2.32
2023-01-18T07:46:40.155Z,2.66
2023-01-18T07:49:06.603Z,3.03
2023-01-18T07:51:33.090Z,3.40
2023-01-18T07:53:59.590Z,3.78
2023-01-18T07:56:26.408Z,3.87
2023-01-18T07:58:53.466Z,4.18
2023-01-18T08:01:22.416Z,4.48
2023-01-18T08:03:50.122Z,4.83
2023-01-18T08:06:21.904Z,5.07
2023-01-18T08:08:48.551Z,5.35
2023-01-18T08:11:15.065Z,5.51
2023-01-18T08:13:41.915Z,5.70
2023-01-18T08:16:11.391Z,5.77
2023-01-18T08:18:39.533Z,5.79
2023-01-18T08:21:08.908Z,5.89
2023-01-18T08:23:35.479Z,5.26
2023-01-18T08:26:02.807Z,4.97
2023-01-18T08:28:29.273Z,4.57
2023-01-18T08:31:07.259Z,4.50
2023-01-18T08:33:37.144Z,4.12
2023-01-18T08:36:03.822Z,3.77
2023-01-18T08:38:30.304Z,3.74
2023-01-18T08:40:56.771Z,3.10
2023-01-18T08:43:23.316Z,2.94
2023-01-18T08:45:50.688Z,2.83
2023-01-18T08:48:17.195Z,2.67
2023-01-18T08:50:43.736Z,2.74
2023-01-18T08:53:10.239Z,2.78
2023-01-18T08:55:36.724Z,2.68
2023-01-18T08:58:03.376Z,2.68
2023-01-18T09:00:30.026Z,2.94
2023-01-18T09:02:57.124Z,2.40
2023-01-18T09:05:24.787Z,2.48
2023-01-18T09:07:55.624Z,2.34
2023-01-18T09:10:22.608Z,2.43
2023-01-18T09:12:49.134Z,2.53
2023-01-18T09:15:15.687Z,2.46
2023-01-18T09:17:42.164Z,2.12
2023-01-18T09:20:10.326Z,2.25
2023-01-18T09:22:37.922Z,2.26
2023-01-18T09:25:05.860Z,2.74
2023-01-18T09:27:32.531Z,2.83
2023-01-18T09:29:59.027Z,3.33
2023-01-18T09:32:25.573Z,3.56
2023-01-18T09:34:52.100Z,3.76
2023-01-18T09:37:18.551Z,3.98
2023-01-18T09:39:51.748Z,4.08
2023-01-18T09:42:23.696Z,3.64
2023-01-18T09:44:58.550Z,4.06
2023-01-18T09:47:28.134Z,4.01
2023-01-18T09:50:00.260Z,3.30
2023-01-18T09:52:32.430Z,2.78
2023-01-18T09:55:17.858Z,2.24
2023-01-18T09:58:05.301Z,1.96
2023-01-18T10:00:36.534Z,2.03
2023-01-18T10:03:27.643Z,1.70
2023-01-18T10:06:09.062Z,1.41
2023-01-18T10:09:00.546Z,1.51
2023-01-18T10:11:39.841Z,1.45
2023-01-18T10:14:35.575Z,1.78
2023-01-18T10:17:14.504Z,2.07
2023-01-18T10:19:41.360Z,1.81
2023-01-18T10:22:45.425Z,1.83
2023-01-18T10:25:31.869Z,2.14
2023-01-18T10:27:58.273Z,2.52
2023-01-18T10:30:43.148Z,2.64
2023-01-18T10:33:23.180Z,2.62
2023-01-18T10:35:55.308Z,2.46
2023-01-18T10:38:26.058Z,2.80
2023-01-18T10:40:59.029Z,2.73
2023-01-18T10:43:28.302Z,2.50
2023-01-18T10:45:54.961Z,2.53
2023-01-18T10:48:24.514Z,2.39
2023-01-18T10:50:54.655Z,2.12
2023-01-18T10:53:25.374Z,1.61
2023-01-18T10:56:09.908Z,1.49
2023-01-18T10:58:55.313Z,1.26
2023-01-18T11:01:25.536Z,1.29
2023-01-18T11:03:56.228Z,1.24
2023-01-18T11:06:24.537Z,1.20
2023-01-18T11:08:51.701Z,1.41
2023-01-18T11:11:30.245Z,1.63
2023-01-18T11:13:56.750Z,1.51
2023-01-18T11:16:23.388Z,1.39
2023-01-18T11:18:58.910Z,1.42
2023-01-18T11:21:28.582Z,1.70
2023-01-18T11:23:55.057Z,1.65
2023-01-18T11:26:23.119Z,1.71
2023-01-18T11:29:00.527Z,2.03
2023-01-18T11:31:30.824Z,2.43
2023-01-18T11:34:04.305Z,2.75
2023-01-18T11:36:45.906Z,2.74
2023-01-18T11:39:27.599Z,2.59
2023-01-18T11:42:16.399Z,3.02
2023-01-18T11:45:09.217Z,3.56
2023-01-18T11:47:56.480Z,3.56
2023-01-18T11:51:20.621Z,3.78
2023-01-18T11:53:59.277Z,3.86
2023-01-18T11:56:37.871Z,4.05
2023-01-18T11:59:13.613Z,3.78
2023-01-18T12:02:24.060Z,3.54
2023-01-18T12:05:22.872Z,3.18
2023-01-18T12:08:14.973Z,2.89
2023-01-18T12:11:08.112Z,3.45
2023-01-18T12:14:17.994Z,3.43
2023-01-18T12:17:12.262Z,3.54
2023-01-18T12:19:54.818Z,2.98
2023-01-18T12:22:39.791Z,3.18
2023-01-18T12:25:31.203Z,3.14
2023-01-18T12:28:21.540Z,2.98
2023-01-18T12:31:13.829Z,3.06
2023-01-18T12:34:07.877Z,2.61
2023-01-18T12:36:59.293Z,2.65
2023-01-18T12:39:31.644Z,2.66
2023-01-18T12:42:05.688Z,2.77
2023-01-18T12:45:07.610Z,2.74
2023-01-18T12:48:09.646Z,2.85
2023-01-18T12:50:40.375Z,2.56
2023-01-18T12:53:17.097Z,2.66
2023-01-18T12:55:51.070Z,3.01
2023-01-18T12:58:25.185Z,2.41
2023-01-18T13:00:58.369Z,3.10
2023-01-18T13:03:34.464Z,3.18
2023-01-18T13:06:03.173Z,3.77
2023-01-18T13:08:34.221Z,3.42
2023-01-18T13:11:19.533Z,3.53
2023-01-18T13:13:55.154Z,3.75
2023-01-18T13:16:36.848Z,4.01
2023-01-18T13:19:09.902Z,3.64
2023-01-18T13:22:06.106Z,4.16
2023-01-18T13:25:10.583Z,3.93
2023-01-18T13:27:37.093Z,3.98
2023-01-18T13:30:15.445Z,4.34
2023-01-18T13:32:42.660Z,4.61
2023-01-18T13:35:24.338Z,4.69
2023-01-18T13:37:56.701Z,5.10
2023-01-18T13:40:51.793Z,5.47
2023-01-18T13:43:36.399Z,5.64
2023-01-18T13:46:05.757Z,5.80
2023-01-18T13:48:49.025Z,5.68
2023-01-18T13:51:40.524Z,5.81
2023-01-18T13:54:15.532Z,5.61
2023-01-18T13:57:01.904Z,5.65
2023-01-18T13:59:35.012Z,5.88
2023-01-18T14:02:26.332Z,5.85
2023-01-18T14:05:04.124Z,5.95
2023-01-18T14:07:41.294Z,6.14
2023-01-18T14:10:24.428Z,6.23
2023-01-18T14:12:54.168Z,6.35
2023-01-18T14:15:29.280Z,6.46
2023-01-18T14:17:59.090Z,6.63
2023-01-18T14:20:52.144Z,6.51
2023-01-18T14:23:37.447Z,6.33
2023-01-18T14:26:16.422Z,6.34
2023-01-18T14:28:59.192Z,6.34
2023-01-18T14:31:32.276Z,6.29
2023-01-18T14:33:58.891Z,6.23
2023-01-18T14:36:28.896Z,6.15
2023-01-18T14:39:12.453Z,5.63
2023-01-18T14:41:46.327Z,5.66
2023-01-18T14:44:23.727Z,5.70
2023-01-18T14:46:53.123Z,5.45
2023-01-18T14:49:29.546Z,5.74
2023-01-18T14:51:56.588Z,5.96
2023-01-18T14:54:24.506Z,6.00
2023-01-18T14:56:59.750Z,5.77
2023-01-18T14:59:27.855Z,4.79
2023-01-18T15:01:59.328Z,4.33
2023-01-18T15:04:31.558Z,4.42
2023-01-18T15:07:04.306Z,4.23
2023-01-18T15:09:34.787Z,4.83
2023-01-18T15:12:07.572Z,4.93
2023-01-18T15:14:44.433Z,4.77
2023-01-18T15:17:19.486Z,4.85
2023-01-18T15:19:50.593Z,4.41
2023-01-18T15:22:17.337Z,4.06
2023-01-18T15:24:46.164Z,4.16
2023-01-18T15:27:16.546Z,3.55
2023-01-18T15:29:49.319Z,3.08
2023-01-18T15:32:31.260Z,3.19
2023-01-18T15:35:00.254Z,3.11
2023-01-18T15:37:29.021Z,2.83
2023-01-18T15:39:58.490Z,2.95
2023-01-18T15:42:50.179Z,2.57
2023-01-18T15:45:25.400Z,2.47
2023-01-18T15:47:58.799Z,2.21
2023-01-18T15:50:45.083Z,2.22
2023-01-18T15:53:35.589Z,2.19
2023-01-18T15:56:08.088Z,2.22
2023-01-18T15:58:43.324Z,2.20
2023-01-18T16:01:19.218Z,1.98
2023-01-18T16:03:45.679Z,1.67
2023-01-18T16:06:21.341Z,1.46
2023-01-18T16:09:19.957Z,1.62
2023-01-18T16:11:54.396Z,1.46
2023-01-18T16:14:33.792Z,1.23
2023-01-18T16:17:07.730Z,1.40
2023-01-18T16:19:36.104Z,1.75
2023-01-18T16:22:05.681Z,1.74
2023-01-18T16:24:53.361Z,1.67
2023-01-18T16:27:23.075Z,1.68
2023-01-18T16:29:58.329Z,1.71
2023-01-18T16:32:24.812Z,1.48
2023-01-18T16:34:52.127Z,1.62
2023-01-18T16:37:19.268Z,1.56
2023-01-18T16:39:46.051Z,1.61
2023-01-18T16:42:12.939Z,1.53
2023-01-18T16:44:43.875Z,1.32
2023-01-18T16:47:17.532Z,1.46
2023-01-18T16:49:44.587Z,1.76
2023-01-18T16:52:12.056Z,1.54
2023-01-18T16:54:43.598Z,1.75
2023-01-18T16:57:23.517Z,1.90
2023-01-18T16:59:50.639Z,1.76
2023-01-18T17:02:17.185Z,1.59
2023-01-18T17:04:43.744Z,1.47
2023-01-18T17:07:10.209Z,1.59
2023-01-18T17:09:47.260Z,1.41
2023-01-18T17:12:14.645Z,1.15
2023-01-18T17:14:41.131Z,1.16
2023-01-18T17:17:09.492Z,0.97
2023-01-18T17:19:36.229Z,0.73
2023-01-18T17:22:02.714Z,0.64
2023-01-18T17:24:29.206Z,0.57
2023-01-18T17:26:55.697Z,0.79
2023-01-18T17:29:22.162Z,0.53
2023-01-18T17:31:52.569Z,0.48
2023-01-18T17:34:27.313Z,0.68
2023-01-18T17:36:56.072Z,0.52
2023-01-18T17:39:24.974Z,0.37
2023-01-18T17:41:58.593Z,0.38
2023-01-18T17:44:33.013Z,0.32
2023-01-18T17:47:03.531Z,0.33
2023-01-18T17:49:29.998Z,0.45
2023-01-18T17:51:56.477Z,0.54
2023-01-18T17:54:23.110Z,0.80
2023-01-18T17:56:49.601Z,0.97
2023-01-18T17:59:16.104Z,0.82
2023-01-18T18:01:42.720Z,0.83
2023-01-18T18:04:09.328Z,0.93
2023-01-18T18:06:38.201Z,0.85
2023-01-18T18:09:06.824Z,0.75
2023-01-18T18:11:33.335Z,0.97
2023-01-18T18:14:01.131Z,0.88
2023-01-18T18:16:28.750Z,1.28
2023-01-18T18:18:55.431Z,1.26
2023-01-18T18:21:21.957Z,1.46
2023-01-18T18:23:48.441Z,1.29
2023-01-18T18:26:14.957Z,1.31
2023-01-18T18:28:41.570Z,0.95
2023-01-18T18:31:13.595Z,1.13
2023-01-18T18:33:40.084Z,0.80
2023-01-18T18:36:06.749Z,0.85
2023-01-18T18:38:33.567Z,0.75
2023-01-18T18:41:05.737Z,0.76
2023-01-18T18:43:32.667Z,0.74
2023-01-18T18:45:59.159Z,0.86
2023-01-18T18:48:25.875Z,0.74
2023-01-18T18:50:52.527Z,0.51
2023-01-18T18:53:21.445Z,0.55
2023-01-18T18:55:50.276Z,0.92
2023-01-18T18:58:16.741Z,1.05
2023-01-18T19:00:43.237Z,0.94
2023-01-18T19:03:09.945Z,1.01
2023-01-18T19:05:36.438Z,1.32
2023-01-18T19:08:02.941Z,1.62
2023-01-18T19:10:29.496Z,1.22
2023-01-18T19:12:56.884Z,1.27
2023-01-18T19:15:23.389Z,1.26
2023-01-18T19:17:51.613Z,1.31
2023-01-18T19:20:19.220Z,1.24
2023-01-18T19:22:47.190Z,1.33
2023-01-18T19:25:15.408Z,1.30
2023-01-18T19:27:42.402Z,1.27
2023-01-18T19:30:12.469Z,1.25
2023-01-18T19:32:39.680Z,1.05
2023-01-18T19:35:06.832Z,0.75
2023-01-18T19:37:33.431Z,0.76
2023-01-18T19:39:59.908Z,0.66
2023-01-18T19:42:26.494Z,0.51
2023-01-18T19:44:56.122Z,0.40
2023-01-18T19:47:25.227Z,0.32
2023-01-18T19:49:51.677Z,0.35
2023-01-18T19:52:18.166Z,0.26
2023-01-18T19:54:44.656Z,0.37
2023-01-18T19:57:11.378Z,0.20
2023-01-18T19:59:37.851Z,0.28
2023-01-18T20:02:04.603Z,0.44
2023-01-18T20:04:31.171Z,0.32
2023-01-18T20:06:57.659Z,0.58
2023-01-18T20:09:35.050Z,0.51
2023-01-18T20:12:09.191Z,0.53
2023-01-18T20:14:41.135Z,0.40
2023-01-18T20:17:12.240Z,0.66
2023-01-18T20:19:38.745Z,0.52
2023-01-18T20:22:05.252Z,0.71
2023-01-18T20:24:31.745Z,0.87
2023-01-18T20:27:10.560Z,0.76
2023-01-18T20:29:41.418Z,0.76
2023-01-18T20:32:15.347Z,0.76
2023-01-18T20:34:42.431Z,0.74
2023-01-18T20:37:08.883Z,0.68
2023-01-18T20:39:35.360Z,0.59
2023-01-18T20:42:01.933Z,0.34
2023-01-18T20:44:28.378Z,0.53
2023-01-18T20:46:54.891Z,0.62
2023-01-18T20:49:29.950Z,0.79
2023-01-18T20:51:59.931Z,0.80
2023-01-18T20:54:26.428Z,0.79
2023-01-18T20:56:52.956Z,0.84
2023-01-18T20:59:19.479Z,0.71
2023-01-18T21:01:46.027Z,0.87
2023-01-18T21:04:14.533Z,0.84
2023-01-18T21:06:41.144Z,0.87
2023-01-18T21:09:10.743Z,0.94
2023-01-18T21:11:37.592Z,1.16
2023-01-18T21:14:04.365Z,1.17
2023-01-18T21:16:31.084Z,0.80
2023-01-18T21:18:57.666Z,0.99
2023-01-18T21:21:24.814Z,1.03
2023-01-18T21:23:51.303Z,0.80
2023-01-18T21:26:17.874Z,0.72
2023-01-18T21:28:44.349Z,0.79
2023-01-18T21:31:11.524Z,0.90
2023-01-18T21:33:38.373Z,1.04
2023-01-18T21:36:11.928Z,1.03
2023-01-18T21:38:38.461Z,1.17
2023-01-18T21:41:05.092Z,1.39
2023-01-18T21:43:31.541Z,1.29
2023-01-18T21:45:58.032Z,1.02
2023-01-18T21:48:26.179Z,1.18
2023-01-18T21:50:52.985Z,1.06
2023-01-18T21:53:19.487Z,1.25
2023-01-18T21:55:45.974Z,1.27
2023-01-18T21:58:12.547Z,1.45
2023-01-18T22:00:40.255Z,1.65
2023-01-18T22:03:07.000Z,1.72
2023-01-18T22:05:33.539Z,1.89
2023-01-18T22:08:00.314Z,2.07
2023-01-18T22:10:26.983Z,1.98
2023-01-18T22:12:56.115Z,2.00
2023-01-18T22:15:22.626Z,1.98
2023-01-18T22:17:49.343Z,2.19
2023-01-18T22:20:16.202Z,2.04
2023-01-18T22:22:42.697Z,2.08
2023-01-18T22:25:09.451Z,2.00
2023-01-18T22:27:36.103Z,1.90
2023-01-18T22:30:03.479Z,1.67
2023-01-18T22:32:29.954Z,1.67
2023-01-18T22:34:56.438Z,1.34
2023-01-18T22:37:23.117Z,1.10
2023-01-18T22:39:49.637Z,1.10
2023-01-18T22:42:16.092Z,1.26
2023-01-18T22:44:42.598Z,1.04
2023-01-18T22:47:09.041Z,0.89
2023-01-18T22:49:35.544Z,1.12
2023-01-18T22:52:02.022Z,0.95
2023-01-18T22:54:28.488Z,1.02
2023-01-18T22:56:54.926Z,1.05
2023-01-18T22:59:21.368Z,1.27
2023-01-18T23:01:47.802Z,1.45
2023-01-18T23:04:14.282Z,1.57
2023-01-18T23:06:40.744Z,1.29
2023-01-18T23:09:08.518Z,1.10
2023-01-18T23:11:35.055Z,0.99
2023-01-18T23:14:01.538Z,0.86
2023-01-18T23:16:28.046Z,0.84
2023-01-18T23:18:54.551Z,0.97
2023-01-18T23:21:21.095Z,0.73
2023-01-18T23:23:48.081Z,0.90
2023-01-18T23:26:15.122Z,0.95
2023-01-18T23:28:41.760Z,1.08
2023-01-18T23:31:17.249Z,1.01
2023-01-18T23:33:44.089Z,1.18
2023-01-18T23:36:11.830Z,1.23
2023-01-18T23:38:38.808Z,0.86
2023-01-18T23:41:05.245Z,1.08
2023-01-18T23:43:31.792Z,0.88
2023-01-18T23:45:58.285Z,0.73
2023-01-18T23:48:24.775Z,0.54
2023-01-18T23:50:51.231Z,0.48
2023-01-18T23:53:17.687Z,0.50
2023-01-18T23:55:44.184Z,0.47
2023-01-18T23:58:10.932Z,0.55
